Time,TemperatureF,DewpointF,PressureIn,WindDirection,WindDirectionDegrees,WindSpeedMPH,WindSpeedGustMPH,Humidity,HourlyPrecipIn,Conditions,Clouds,dailyrainin,SoftwareType,DateUTC
2013-07-25 08:45:00,66.9,59.5,30.04,SE,140,0.0,0.0,77,0.00,,,0.00,Wunderground v.1.15,2013-07-25 13:45:00,
2013-07-25 08:50:00,67.9,60.4,30.04,SE,126,0.0,0.0,77,0.00,,,0.00,Wunderground v.1.15,2013-07-25 13:50:00,
2013-07-25 08:55:00,69.5,61.6,30.05,SSE,148,0.0,1.0,76,0.00,,,0.00,Wunderground v.1.15,2013-07-25 13:55:00,
2013-07-25 09:00:00,69.2,59.4,30.05,SW,231,1.0,5.0,71,0.00,,,0.00,Wunderground v.1.15,2013-07-25 14:00:00,
2013-07-25 09:05:00,68.8,59.4,30.05,SW,224,3.0,5.0,72,0.00,,,0.00,Wunderground v.1.15,2013-07-25 14:05:00,
2013-07-25 09:10:00,68.3,59.3,30.05,South,181,2.0,2.0,73,0.00,,,0.00,Wunderground v.1.15,2013-07-25 14:10:00,
2013-07-25 09:15:00,68.2,59.2,30.05,SSE,160,1.0,2.0,73,0.00,,,0.00,Wunderground v.1.15,2013-07-25 14:15:00,
2013-07-25 09:20:00,68.4,59.0,30.04,ENE,74,2.0,2.0,72,0.00,,,0.00,Wunderground v.1.15,2013-07-25 14:20:00,
2013-07-25 09:25:00,68.7,59.3,30.04,SSW,204,2.0,2.0,72,0.00,,,0.00,Wunderground v.1.15,2013-07-25 14:25:00,
2013-07-25 09:30:00,69.1,59.7,30.04,SSE,156,2.0,2.0,72,0.00,,,0.00,Wunderground v.1.15,2013-07-25 14:30:00,
2013-07-25 09:35:00,69.4,59.6,30.04,WSW,246,3.0,3.0,71,0.00,,,0.00,Wunderground v.1.15,2013-07-25 14:35:00,
2013-07-25 09:40:00,69.7,60.7,30.04,ESE,112,2.0,2.0,73,0.00,,,0.00,Wunderground v.1.15,2013-07-25 14:40:00,
2013-07-25 09:45:00,70.5,60.6,30.04,WSW,252,2.0,2.0,71,0.00,,,0.00,Wunderground v.1.15,2013-07-25 14:45:00,
2013-07-25 09:54:00,71.4,60.7,30.04,East,101,2.0,3.0,69,0.00,,,0.00,Wunderground v.1.15,2013-07-25 14:54:00,
2013-07-25 10:00:00,71.8,61.1,30.03,SW,218,2.0,2.0,69,0.00,,,0.00,Wunderground v.1.15,2013-07-25 15:00:00,
2013-07-25 10:10:00,72.7,61.1,30.03,WSW,243,2.0,3.0,67,0.00,,,0.00,Wunderground v.1.15,2013-07-25 15:10:00,
2013-07-25 10:15:00,73.1,61.5,30.03,WSW,253,2.0,3.0,67,0.00,,,0.00,Wunderground v.1.15,2013-07-25 15:15:00,
2013-07-25 10:20:00,73.5,61.9,30.03,WSW,246,2.0,2.0,67,0.00,,,0.00,Wunderground v.1.15,2013-07-25 15:20:00,
2013-07-25 10:25:00,74.2,61.7,30.03,SW,235,2.0,3.0,65,0.00,,,0.00,Wunderground v.1.15,2013-07-25 15:25:00,
2013-07-25 10:34:00,74.6,61.6,30.03,WSW,254,3.0,3.0,64,0.00,,,0.00,Wunderground v.1.15,2013-07-25 15:34:00,
2013-07-25 10:44:00,74.8,61.4,30.03,SSW,205,3.0,3.0,63,0.00,,,0.00,Wunderground v.1.15,2013-07-25 15:44:00,
2013-07-25 10:49:00,74.9,61.9,30.03,SSE,150,3.0,3.0,64,0.00,,,0.00,Wunderground v.1.15,2013-07-25 15:49:00,
2013-07-25 10:54:00,75.1,61.6,30.03,SSW,211,2.0,3.0,63,0.00,,,0.00,Wunderground v.1.15,2013-07-25 15:54:00,
2013-07-25 11:00:00,74.7,61.3,30.03,SSW,205,2.0,2.0,63,0.00,,,0.00,Wunderground v.1.15,2013-07-25 16:00:00,
2013-07-25 11:09:00,74.4,61.4,30.02,SSW,201,3.0,3.0,64,0.00,,,0.00,Wunderground v.1.15,2013-07-25 16:09:00,
2013-07-25 11:14:00,74.7,63.0,30.02,SW,236,2.0,4.0,67,0.00,,,0.00,Wunderground v.1.15,2013-07-25 16:14:00,
2013-07-25 11:19:00,74.7,62.1,30.03,WSW,246,2.0,3.0,65,0.00,,,0.00,Wunderground v.1.15,2013-07-25 16:19:00,
2013-07-25 11:24:00,74.4,61.4,30.03,SW,232,3.0,8.0,64,0.00,,,0.00,Wunderground v.1.15,2013-07-25 16:24:00,
2013-07-25 11:29:00,74.1,62.0,30.03,SW,232,3.0,4.0,66,0.00,,,0.00,Wunderground v.1.15,2013-07-25 16:29:00,
2013-07-25 11:34:00,74.1,61.6,30.04,West,267,3.0,4.0,65,0.00,,,0.00,Wunderground v.1.15,2013-07-25 16:34:00,
2013-07-25 11:39:00,74.1,62.0,30.04,South,181,3.0,3.0,66,0.00,,,0.00,Wunderground v.1.15,2013-07-25 16:39:00,
2013-07-25 11:44:00,74.3,62.6,30.04,WSW,246,2.0,3.0,67,0.00,,,0.00,Wunderground v.1.15,2013-07-25 16:44:00,
2013-07-25 11:54:00,75.3,63.2,30.03,West,279,1.0,2.0,66,0.00,,,0.00,Wunderground v.1.15,2013-07-25 16:54:00,
2013-07-25 12:04:00,76.1,62.1,30.03,WSW,240,2.0,4.0,62,0.00,,,0.00,Wunderground v.1.15,2013-07-25 17:04:00,
2013-07-25 12:09:00,75.6,62.6,30.02,SW,236,2.0,3.0,64,0.00,,,0.00,Wunderground v.1.15,2013-07-25 17:09:00,
2013-07-25 12:14:00,75.2,62.6,30.02,WSW,243,2.0,3.0,65,0.00,,,0.00,Wunderground v.1.15,2013-07-25 17:14:00,
2013-07-25 12:19:00,75.1,63.4,30.02,WSW,247,2.0,5.0,67,0.00,,,0.00,Wunderground v.1.15,2013-07-25 17:19:00,
2013-07-25 12:25:00,75.3,63.6,30.02,SW,215,3.0,5.0,67,0.00,,,0.00,Wunderground v.1.15,2013-07-25 17:25:00,
2013-07-25 12:34:00,75.3,63.6,30.02,WSW,256,3.0,3.0,67,0.00,,,0.00,Wunderground v.1.15,2013-07-25 17:34:00,
2013-07-25 12:44:00,75.1,63.4,30.02,WSW,249,3.0,3.0,67,0.00,,,0.00,Wunderground v.1.15,2013-07-25 17:44:00,
2013-07-25 12:49:00,75.7,64.0,30.02,SW,229,2.0,3.0,67,0.00,,,0.00,Wunderground v.1.15,2013-07-25 17:49:00,
2013-07-25 12:54:00,76.3,65.0,30.02,SSW,201,2.0,3.0,68,0.00,,,0.00,Wunderground v.1.15,2013-07-25 17:54:00,
2013-07-25 12:59:00,76.9,63.8,30.02,South,172,2.0,2.0,64,0.00,,,0.00,Wunderground v.1.15,2013-07-25 17:59:00,
2013-07-25 13:09:00,77.7,64.5,30.01,West,263,3.0,3.0,64,0.00,,,0.00,Wunderground v.1.15,2013-07-25 18:09:00,
2013-07-25 13:14:00,78.3,64.7,30.01,ESE,112,2.0,3.0,63,0.00,,,0.00,Wunderground v.1.15,2013-07-25 18:14:00,
2013-07-25 13:19:00,78.9,64.3,30.00,West,281,2.0,4.0,61,0.00,,,0.00,Wunderground v.1.15,2013-07-25 18:19:00,
2013-07-25 13:29:00,77.8,64.2,30.01,SW,235,3.0,3.0,63,0.00,,,0.00,Wunderground v.1.15,2013-07-25 18:29:00,
2013-07-25 13:34:00,77.5,63.5,30.01,SSW,209,3.0,3.0,62,0.00,,,0.00,Wunderground v.1.15,2013-07-25 18:34:00,
2013-07-25 13:44:00,78.2,64.1,30.01,West,264,3.0,9.0,62,0.00,,,0.00,Wunderground v.1.15,2013-07-25 18:44:00,
2013-07-25 13:54:00,78.1,63.1,30.01,ESE,108,3.0,6.0,60,0.00,,,0.00,Wunderground v.1.15,2013-07-25 18:54:00,
2013-07-25 13:59:00,78.8,64.2,30.00,East,87,3.0,5.0,61,0.00,,,0.00,Wunderground v.1.15,2013-07-25 18:59:00,
2013-07-25 14:09:00,79.2,64.6,30.00,SW,233,3.0,4.0,61,0.00,,,0.00,Wunderground v.1.15,2013-07-25 19:09:00,
2013-07-25 14:19:00,79.1,64.5,29.99,NW,314,3.0,4.0,61,0.00,,,0.00,Wunderground v.1.15,2013-07-25 19:19:00,
2013-07-25 14:24:00,79.2,64.6,29.99,SW,224,3.0,9.0,61,0.00,,,0.00,Wunderground v.1.15,2013-07-25 19:24:00,
2013-07-25 14:29:00,78.9,63.4,29.99,SW,232,3.0,3.0,59,0.00,,,0.00,Wunderground v.1.15,2013-07-25 19:29:00,
2013-07-25 14:34:00,78.5,63.5,29.98,SW,214,3.0,6.0,60,0.00,,,0.00,Wunderground v.1.15,2013-07-25 19:34:00,
2013-07-25 14:40:00,78.9,63.8,29.98,West,266,3.0,3.0,60,0.00,,,0.00,Wunderground v.1.15,2013-07-25 19:40:00,
2013-07-25 14:49:00,78.8,63.3,29.97,SW,233,3.0,4.0,59,0.00,,,0.00,Wunderground v.1.15,2013-07-25 19:49:00,
2013-07-25 14:54:00,78.5,63.9,29.97,WSW,246,4.0,4.0,61,0.00,,,0.00,Wunderground v.1.15,2013-07-25 19:54:00,
2013-07-25 15:00:00,78.6,63.6,29.97,WSW,253,4.0,5.0,60,0.00,,,0.00,Wunderground v.1.15,2013-07-25 20:00:00,
2013-07-25 15:10:00,78.4,63.4,29.97,ENE,77,3.0,3.0,60,0.00,,,0.00,Wunderground v.1.15,2013-07-25 20:10:00,
2013-07-25 15:15:00,78.3,64.2,29.97,East,89,2.0,3.0,62,0.00,,,0.00,Wunderground v.1.15,2013-07-25 20:15:00,
2013-07-25 15:25:00,78.3,64.2,29.97,SW,229,1.0,4.0,62,0.00,,,0.00,Wunderground v.1.15,2013-07-25 20:25:00,
2013-07-25 15:30:00,78.1,64.0,29.96,SE,129,2.0,2.0,62,0.00,,,0.00,Wunderground v.1.15,2013-07-25 20:30:00,
2013-07-25 15:40:00,77.8,64.6,29.97,SSW,199,2.0,2.0,64,0.00,,,0.00,Wunderground v.1.15,2013-07-25 20:40:00,
2013-07-25 15:45:00,77.8,64.6,29.97,SW,233,1.0,2.0,64,0.00,,,0.00,Wunderground v.1.15,2013-07-25 20:45:00,
2013-07-25 15:50:00,77.9,65.2,29.96,SW,225,1.0,1.0,65,0.00,,,0.00,Wunderground v.1.15,2013-07-25 20:50:00,
2013-07-25 15:55:00,77.5,65.2,29.96,ESE,117,1.0,1.0,66,0.00,,,0.00,Wunderground v.1.15,2013-07-25 20:55:00,
2013-07-25 16:05:00,77.1,65.3,29.97,WNW,293,1.0,1.0,67,0.00,,,0.00,Wunderground v.1.15,2013-07-25 21:05:00,
2013-07-25 16:10:00,76.8,65.0,29.96,South,190,1.0,1.0,67,0.00,,,0.00,Wunderground v.1.15,2013-07-25 21:10:00,
2013-07-25 16:20:00,76.5,65.1,29.96,WSW,240,1.0,1.0,68,0.00,,,0.00,Wunderground v.1.15,2013-07-25 21:20:00,
2013-07-25 16:30:00,76.1,65.2,29.96,ENE,75,1.0,1.0,69,0.00,,,0.00,Wunderground v.1.15,2013-07-25 21:30:00,
2013-07-25 16:35:00,75.8,64.9,29.96,WSW,257,1.0,3.0,69,0.00,,,0.00,Wunderground v.1.15,2013-07-25 21:35:00,
2013-07-25 16:40:00,75.6,65.1,29.96,NNW,336,1.0,1.0,70,0.00,,,0.00,Wunderground v.1.15,2013-07-25 21:40:00,
2013-07-25 16:45:00,75.5,65.0,29.96,NNE,13,1.0,1.0,70,0.00,,,0.00,Wunderground v.1.15,2013-07-25 21:45:00,
2013-07-25 16:55:00,75.4,65.3,29.97,SSW,208,1.0,2.0,71,0.00,,,0.00,Wunderground v.1.15,2013-07-25 21:55:00,
2013-07-25 17:05:00,75.3,64.8,29.97,SSW,208,1.0,3.0,70,0.00,,,0.00,Wunderground v.1.15,2013-07-25 22:05:00,
2013-07-25 17:10:00,75.3,64.8,29.96,NE,48,1.0,1.0,70,0.00,,,0.00,Wunderground v.1.15,2013-07-25 22:10:00,
2013-07-25 17:15:00,75.2,65.1,29.96,NE,36,0.0,1.0,71,0.00,,,0.00,Wunderground v.1.15,2013-07-25 22:15:00,
2013-07-25 17:20:00,75.2,65.1,29.96,NNE,25,0.0,0.0,71,0.00,,,0.00,Wunderground v.1.15,2013-07-25 22:20:00,
2013-07-25 17:25:00,75.1,65.1,29.96,WSW,253,0.0,1.0,71,0.00,,,0.00,Wunderground v.1.15,2013-07-25 22:25:00,
2013-07-25 17:30:00,74.9,64.9,29.96,NW,309,1.0,3.0,71,0.00,,,0.00,Wunderground v.1.15,2013-07-25 22:30:00,
2013-07-25 17:40:00,74.6,64.6,29.96,SSW,210,2.0,2.0,71,0.00,,,0.00,Wunderground v.1.15,2013-07-25 22:40:00,
2013-07-25 17:49:00,74.2,65.0,29.96,SW,217,1.0,3.0,73,0.00,,,0.00,Wunderground v.1.15,2013-07-25 22:49:00,
2013-07-25 18:00:00,73.8,65.4,29.96,NW,316,2.0,2.0,75,0.00,,,0.00,Wunderground v.1.15,2013-07-25 23:00:00,
2013-07-25 18:10:00,73.4,65.4,29.97,SSW,207,1.0,1.0,76,0.00,,,0.00,Wunderground v.1.15,2013-07-25 23:10:00,
2013-07-25 18:15:00,73.2,65.6,29.97,SW,233,1.0,4.0,77,0.00,,,0.00,Wunderground v.1.15,2013-07-25 23:15:00,
2013-07-25 18:25:00,72.5,66.3,29.97,NW,307,1.0,1.0,81,0.00,,,0.00,Wunderground v.1.15,2013-07-25 23:25:00,
2013-07-25 18:34:00,71.6,66.5,29.97,SW,229,1.0,1.0,84,0.00,,,0.01,Wunderground v.1.15,2013-07-25 23:34:00,
2013-07-25 18:40:00,71.3,66.2,29.96,SW,218,0.0,3.0,84,0.00,,,0.01,Wunderground v.1.15,2013-07-25 23:40:00,
2013-07-25 18:49:00,70.8,66.1,29.96,SSE,162,1.0,1.0,85,0.00,,,0.01,Wunderground v.1.15,2013-07-25 23:49:00,
2013-07-25 18:55:00,70.6,66.2,29.96,WSW,257,0.0,1.0,86,0.00,,,0.02,Wunderground v.1.15,2013-07-25 23:55:00,
2013-07-25 19:00:00,70.4,66.3,29.97,West,264,1.0,1.0,87,0.00,,,0.02,Wunderground v.1.15,2013-07-26 00:00:00,
2013-07-25 19:09:00,70.0,66.0,29.96,WSW,240,2.0,2.0,87,0.00,,,0.02,Wunderground v.1.15,2013-07-26 00:09:00,
2013-07-25 19:15:00,69.9,65.9,29.96,West,259,2.0,2.0,87,0.00,,,0.02,Wunderground v.1.15,2013-07-26 00:15:00,
2013-07-25 19:24:00,69.9,65.5,29.95,West,267,3.0,3.0,86,0.00,,,0.02,Wunderground v.1.15,2013-07-26 00:24:00,
2013-07-25 19:29:00,69.8,65.8,29.94,ESE,114,3.0,3.0,87,0.00,,,0.02,Wunderground v.1.15,2013-07-26 00:29:00,
2013-07-25 19:35:00,69.7,65.7,29.92,SSW,201,3.0,3.0,87,0.00,,,0.02,Wunderground v.1.15,2013-07-26 00:35:00,
2013-07-25 19:45:00,69.3,65.6,29.95,West,265,2.0,3.0,88,0.00,,,0.02,Wunderground v.1.15,2013-07-26 00:45:00,
2013-07-25 19:54:00,68.9,65.5,29.96,SW,231,3.0,6.0,89,0.00,,,0.03,Wunderground v.1.15,2013-07-26 00:54:00,
2013-07-25 19:59:00,69.0,65.6,29.96,SW,233,3.0,4.0,89,0.00,,,0.03,Wunderground v.1.15,2013-07-26 00:59:00,
2013-07-25 20:09:00,68.9,65.8,29.97,WSW,253,4.0,4.0,90,0.00,,,0.03,Wunderground v.1.15,2013-07-26 01:09:00,
2013-07-25 20:14:00,68.9,65.8,29.97,WSW,243,3.0,4.0,90,0.00,,,0.04,Wunderground v.1.15,2013-07-26 01:14:00,
2013-07-25 20:19:00,68.7,65.6,29.98,West,262,4.0,4.0,90,0.00,,,0.04,Wunderground v.1.15,2013-07-26 01:19:00,
2013-07-25 20:29:00,68.3,65.6,29.97,WSW,240,5.0,9.0,91,0.08,,,0.06,Wunderground v.1.15,2013-07-26 01:29:00,
2013-07-25 20:39:00,68.2,65.8,29.96,SW,215,4.0,4.0,92,0.05,,,0.06,Wunderground v.1.15,2013-07-26 01:39:00,
2013-07-25 20:54:00,67.6,64.9,29.96,WSW,240,1.0,2.0,91,0.00,,,0.06,Wunderground v.1.15,2013-07-26 01:54:00,
2013-07-25 20:59:00,67.5,65.1,29.96,WSW,240,1.0,1.0,92,0.00,,,0.06,Wunderground v.1.15,2013-07-26 01:59:00,
2013-07-25 21:09:00,67.2,64.2,29.96,SSW,212,0.0,0.0,90,0.00,,,0.06,Wunderground v.1.15,2013-07-26 02:09:00,
2013-07-25 21:14:00,67.1,64.4,29.96,SE,142,0.0,0.0,91,0.00,,,0.06,Wunderground v.1.15,2013-07-26 02:14:00,
2013-07-25 21:24:00,66.9,64.2,29.97,SW,228,0.0,1.0,91,0.00,,,0.06,Wunderground v.1.15,2013-07-26 02:24:00,
2013-07-25 21:29:00,66.8,64.1,29.97,WSW,253,0.0,1.0,91,0.00,,,0.06,Wunderground v.1.15,2013-07-26 02:29:00,
2013-07-25 21:34:00,66.6,63.9,29.96,SSE,156,0.0,1.0,91,0.00,,,0.07,Wunderground v.1.15,2013-07-26 02:34:00,
2013-07-25 21:44:00,66.2,63.5,29.95,SSE,155,0.0,0.0,91,0.00,,,0.07,Wunderground v.1.15,2013-07-26 02:44:00,
2013-07-25 21:50:00,66.2,63.8,29.95,NW,314,0.0,0.0,92,0.00,,,0.07,Wunderground v.1.15,2013-07-26 02:50:00,
2013-07-25 22:04:00,66.7,63.7,29.94,SW,231,1.0,2.0,90,0.00,,,0.07,Wunderground v.1.15,2013-07-26 03:04:00,
2013-07-25 22:09:00,66.7,63.7,29.94,SW,217,1.0,2.0,90,0.00,,,0.07,Wunderground v.1.15,2013-07-26 03:09:00,